createdAt,value
2022-10-22T00:01:26.834Z,16.88
2022-10-22T00:04:07.391Z,16.98
2022-10-22T00:06:34.197Z,16.97
2022-10-22T00:09:01.270Z,16.96
2022-10-22T00:11:28.049Z,16.98
2022-10-22T00:14:14.887Z,16.98
2022-10-22T00:17:15.871Z,16.98
2022-10-22T00:19:56.452Z,17.06
2022-10-22T00:22:23.253Z,17.04
2022-10-22T00:24:50.009Z,17.12
2022-10-22T00:27:16.767Z,17.14
2022-10-22T00:29:43.501Z,17.17
2022-10-22T00:32:10.379Z,17.21
2022-10-22T00:34:37.273Z,17.14
2022-10-22T00:37:04.069Z,17.19
2022-10-22T00:39:30.854Z,17.15
2022-10-22T00:41:57.984Z,17.17
2022-10-22T00:44:43.491Z,17.12
2022-10-22T00:47:10.371Z,17.22
2022-10-22T00:49:37.394Z,17.22
2022-10-22T00:52:04.209Z,17.14
2022-10-22T00:54:50.886Z,17.17
2022-10-22T00:57:51.879Z,17.11
2022-10-22T01:00:32.623Z,17.12
2022-10-22T01:02:59.653Z,17.16
2022-10-22T01:05:27.813Z,17.21
2022-10-22T01:07:54.649Z,17.13
2022-10-22T01:10:21.611Z,17.15
2022-10-22T01:12:48.296Z,17.13
2022-10-22T01:15:33.061Z,17.09
2022-10-22T01:18:02.877Z,17.12
2022-10-22T01:20:38.851Z,17.08
2022-10-22T01:23:08.684Z,17.23
2022-10-22T01:26:05.964Z,17.21
2022-10-22T01:28:52.763Z,17.27
2022-10-22T01:31:20.945Z,17.18
2022-10-22T01:34:07.946Z,17.19
2022-10-22T01:36:50.994Z,17.22
2022-10-22T01:39:17.927Z,17.26
2022-10-22T01:41:48.255Z,17.13
2022-10-22T01:44:25.183Z,17.11
2022-10-22T01:46:55.359Z,17.04
2022-10-22T01:49:27.319Z,17.03
2022-10-22T01:52:07.673Z,17.05
2022-10-22T01:55:03.927Z,16.97
2022-10-22T01:58:31.922Z,17.07
2022-10-22T02:01:23.590Z,16.97
2022-10-22T02:04:10.674Z,16.92
2022-10-22T02:06:39.209Z,17.07
2022-10-22T02:09:07.818Z,17.09
2022-10-22T02:11:55.003Z,17.09
2022-10-22T02:14:37.546Z,17.00
2022-10-22T02:17:04.687Z,17.01
2022-10-22T02:19:38.201Z,17.05
2022-10-22T02:22:05.248Z,17.07
2022-10-22T02:24:32.155Z,17.05
2022-10-22T02:27:09.732Z,17.07
2022-10-22T02:29:39.376Z,17.03
2022-10-22T02:32:07.409Z,16.95
2022-10-22T02:34:54.966Z,16.97
2022-10-22T02:37:35.945Z,17.03
2022-10-22T02:40:03.477Z,17.00
2022-10-22T02:42:52.924Z,16.95
2022-10-22T02:45:33.956Z,16.99
2022-10-22T02:48:00.918Z,16.97
2022-10-22T02:50:27.851Z,16.98
2022-10-22T02:52:54.541Z,16.95
2022-10-22T02:55:42.039Z,16.93
2022-10-22T02:58:22.453Z,16.97
2022-10-22T03:01:11.253Z,17.05
2022-10-22T03:04:14.971Z,16.97
2022-10-22T03:07:15.937Z,16.95
2022-10-22T03:09:43.421Z,16.94
2022-10-22T03:12:10.156Z,17.00
2022-10-22T03:14:36.916Z,16.94
2022-10-22T03:17:23.944Z,16.98
2022-10-22T03:20:04.571Z,17.02
2022-10-22T03:22:32.791Z,17.03
2022-10-22T03:25:03.269Z,17.08
2022-10-22T03:27:30.526Z,17.14
2022-10-22T03:29:58.124Z,17.10
2022-10-22T03:32:24.921Z,17.12
2022-10-22T03:34:51.866Z,17.10
2022-10-22T03:37:19.109Z,17.09
2022-10-22T03:39:46.439Z,17.03
2022-10-22T03:42:13.704Z,17.06
2022-10-22T03:44:41.037Z,17.03
2022-10-22T03:47:07.938Z,17.06
2022-10-22T03:49:34.786Z,17.12
2022-10-22T03:52:09.030Z,17.11
2022-10-22T03:54:55.973Z,17.16
2022-10-22T03:57:56.997Z,17.13
2022-10-22T04:00:37.615Z,17.16
2022-10-22T04:03:04.674Z,17.08
2022-10-22T04:05:32.816Z,17.03
2022-10-22T04:07:59.915Z,17.01
2022-10-22T04:10:26.801Z,17.00
2022-10-22T04:12:53.608Z,17.03
2022-10-22T04:15:41.000Z,17.06
2022-10-22T04:18:42.024Z,17.12
2022-10-22T04:21:22.708Z,17.16
2022-10-22T04:23:50.733Z,17.10
2022-10-22T04:26:18.415Z,17.25
2022-10-22T04:29:05.034Z,17.28
2022-10-22T04:31:45.396Z,17.25
2022-10-22T04:34:12.213Z,17.10
2022-10-22T04:36:38.984Z,17.15
2022-10-22T04:39:06.247Z,17.19
2022-10-22T04:41:34.715Z,17.31
2022-10-22T04:44:02.096Z,17.24
2022-10-22T04:46:30.384Z,17.20
2022-10-22T04:48:57.299Z,17.15
2022-10-22T04:51:44.013Z,17.14
2022-10-22T04:54:45.028Z,17.02
2022-10-22T04:57:29.304Z,17.03
2022-10-22T04:59:56.073Z,17.09
2022-10-22T05:02:36.043Z,17.00
2022-10-22T05:05:16.793Z,17.07
2022-10-22T05:07:43.832Z,17.07
2022-10-22T05:10:10.815Z,17.02
2022-10-22T05:12:37.731Z,16.94
2022-10-22T05:15:04.614Z,17.04
2022-10-22T05:17:31.651Z,17.04
2022-10-22T05:19:58.414Z,16.96
2022-10-22T05:22:25.194Z,16.82
2022-10-22T05:24:52.018Z,16.81
2022-10-22T05:27:39.278Z,16.82
2022-10-22T05:30:40.064Z,17.00
2022-10-22T05:33:24.080Z,16.97
2022-10-22T05:35:51.366Z,16.86
2022-10-22T05:38:18.394Z,16.68
2022-10-22T05:40:45.763Z,16.71
2022-10-22T05:43:12.814Z,16.83
2022-10-22T05:45:40.071Z,16.71
2022-10-22T05:48:27.119Z,16.75
2022-10-22T05:51:28.079Z,16.75
2022-10-22T05:54:33.091Z,16.65
2022-10-22T05:57:13.461Z,16.73
2022-10-22T05:59:40.279Z,17.10
2022-10-22T06:02:09.045Z,17.14
2022-10-22T06:04:36.047Z,16.82
2022-10-22T06:07:25.074Z,16.92
2022-10-22T06:10:05.925Z,17.09
2022-10-22T06:12:32.778Z,16.90
2022-10-22T06:14:59.556Z,16.97
2022-10-22T06:17:26.450Z,17.18
2022-10-22T06:20:15.035Z,17.37
2022-10-22T06:22:55.528Z,17.40
2022-10-22T06:25:22.214Z,17.55
2022-10-22T06:27:49.606Z,17.70
2022-10-22T06:30:16.498Z,17.62
2022-10-22T06:32:43.380Z,17.60
2022-10-22T06:35:10.196Z,17.73
2022-10-22T06:37:57.069Z,17.77
2022-10-22T06:40:58.091Z,18.06
2022-10-22T06:43:38.982Z,18.14
2022-10-22T06:46:07.547Z,18.16
2022-10-22T06:48:36.284Z,18.11
2022-10-22T06:51:25.096Z,17.92
2022-10-22T06:54:26.154Z,18.26
2022-10-22T06:57:06.571Z,18.18
2022-10-22T06:59:33.383Z,18.41
2022-10-22T07:02:00.180Z,18.41
2022-10-22T07:04:27.122Z,18.50
2022-10-22T07:07:14.120Z,18.53
2022-10-22T07:09:54.514Z,18.52
2022-10-22T07:12:21.366Z,18.77
2022-10-22T07:14:48.974Z,18.83
2022-10-22T07:17:15.978Z,18.92
2022-10-22T07:20:03.099Z,18.96
2022-10-22T07:22:43.731Z,19.23
2022-10-22T07:25:10.686Z,19.35
2022-10-22T07:27:37.929Z,19.55
2022-10-22T07:30:05.121Z,19.66
2022-10-22T07:32:31.923Z,19.84
2022-10-22T07:34:58.752Z,19.77
2022-10-22T07:37:25.523Z,19.80
2022-10-22T07:39:53.861Z,19.86
2022-10-22T07:42:22.718Z,20.10
2022-10-22T07:44:49.626Z,20.32
2022-10-22T07:47:37.133Z,20.61
2022-10-22T07:50:38.194Z,20.64
2022-10-22T07:53:39.135Z,20.60
2022-10-22T07:56:40.131Z,20.78
2022-10-22T07:59:28.264Z,21.03
2022-10-22T08:01:55.009Z,20.88
2022-10-22T08:04:22.032Z,21.50
2022-10-22T08:06:48.926Z,21.44
2022-10-22T08:09:15.887Z,21.78
2022-10-22T08:11:42.814Z,22.08
2022-10-22T08:14:09.600Z,22.48
2022-10-22T08:16:36.369Z,22.82
2022-10-22T08:19:03.206Z,23.01
2022-10-22T08:21:30.025Z,23.14
2022-10-22T08:23:56.825Z,23.27
2022-10-22T08:26:23.789Z,23.12
2022-10-22T08:28:50.643Z,23.10
2022-10-22T08:31:17.419Z,23.23
2022-10-22T08:33:44.321Z,23.20
2022-10-22T08:36:31.193Z,23.45
2022-10-22T08:39:12.006Z,23.75
2022-10-22T08:41:57.751Z,23.96
2022-10-22T08:44:47.897Z,24.21
2022-10-22T08:47:33.400Z,24.20
2022-10-22T08:50:23.189Z,24.43
2022-10-22T08:53:29.189Z,24.90
2022-10-22T08:56:30.176Z,25.15
2022-10-22T08:59:10.693Z,25.10
2022-10-22T09:01:43.053Z,25.28
2022-10-22T09:04:25.538Z,25.37
2022-10-22T09:06:54.453Z,25.52
2022-10-22T09:09:43.223Z,25.08
2022-10-22T09:12:24.796Z,24.92
2022-10-22T09:14:51.887Z,25.14
2022-10-22T09:17:19.501Z,25.19
2022-10-22T09:19:58.102Z,25.63
2022-10-22T09:22:32.867Z,25.35
2022-10-22T09:25:10.057Z,25.65
2022-10-22T09:27:36.827Z,25.66
2022-10-22T09:30:04.644Z,24.75
2022-10-22T09:32:33.904Z,24.62
2022-10-22T09:35:01.215Z,24.77
2022-10-22T09:37:29.854Z,24.68
2022-10-22T09:39:58.973Z,25.27
2022-10-22T09:42:25.906Z,25.27
2022-10-22T09:44:56.543Z,25.30
2022-10-22T09:47:43.299Z,25.64
2022-10-22T09:50:17.145Z,25.01
2022-10-22T09:53:15.236Z,22.98
2022-10-22T09:56:20.238Z,22.63
2022-10-22T09:59:01.370Z,22.37
2022-10-22T10:01:30.167Z,21.76
2022-10-22T10:04:09.166Z,22.26
2022-10-22T10:06:39.235Z,22.00
2022-10-22T10:09:15.299Z,22.27
2022-10-22T10:11:46.015Z,23.25
2022-10-22T10:14:33.236Z,23.39
2022-10-22T10:17:23.157Z,22.54
2022-10-22T10:19:52.989Z,22.92
2022-10-22T10:22:32.161Z,23.99
2022-10-22T10:24:58.970Z,23.73
2022-10-22T10:27:51.233Z,24.56
2022-10-22T10:30:33.242Z,24.43
2022-10-22T10:33:15.552Z,23.25
2022-10-22T10:35:45.523Z,22.99
2022-10-22T10:38:29.546Z,22.21
2022-10-22T10:41:00.018Z,21.75
2022-10-22T10:43:50.245Z,21.97
2022-10-22T10:46:36.911Z,21.78
2022-10-22T10:49:04.252Z,21.80
2022-10-22T10:51:57.291Z,21.88
2022-10-22T10:55:18.278Z,21.66
2022-10-22T10:58:11.029Z,21.66
2022-10-22T11:00:58.271Z,21.96
2022-10-22T11:03:48.145Z,21.75
2022-10-22T11:06:17.297Z,21.99
2022-10-22T11:09:22.293Z,23.26
2022-10-22T11:12:01.385Z,23.95
2022-10-22T11:14:31.961Z,23.26
2022-10-22T11:17:06.120Z,22.48
2022-10-22T11:19:51.695Z,21.82
2022-10-22T11:22:26.897Z,22.70
2022-10-22T11:24:53.960Z,22.13
2022-10-22T11:27:44.500Z,22.49
2022-10-22T11:30:26.286Z,22.37
2022-10-22T11:32:55.134Z,21.97
2022-10-22T11:35:26.819Z,21.66
2022-10-22T11:37:55.778Z,22.01
2022-10-22T11:40:32.086Z,22.00
2022-10-22T11:43:03.610Z,21.69
2022-10-22T11:45:56.350Z,21.63
2022-10-22T11:48:38.069Z,22.08
2022-10-22T11:51:48.279Z,21.76
2022-10-22T11:54:49.295Z,21.78
2022-10-22T11:57:39.594Z,21.68
2022-10-22T12:00:39.934Z,21.50
2022-10-22T12:03:50.315Z,21.61
2022-10-22T12:07:02.847Z,21.44
2022-10-22T12:09:32.773Z,21.57
2022-10-22T12:12:02.687Z,21.63
2022-10-22T12:14:33.781Z,21.58
2022-10-22T12:17:16.092Z,21.63
2022-10-22T12:19:51.975Z,21.75
2022-10-22T12:22:24.210Z,21.46
2022-10-22T12:24:53.947Z,21.92
2022-10-22T12:27:22.606Z,21.98
2022-10-22T12:29:53.894Z,21.40
2022-10-22T12:32:20.899Z,21.35
2022-10-22T12:37:16.317Z,21.58
2022-10-22T12:39:43.215Z,21.71
2022-10-22T12:42:14.884Z,21.73
2022-10-22T12:44:43.064Z,21.41
2022-10-22T12:47:14.914Z,21.29
2022-10-22T12:50:03.312Z,21.00
2022-10-22T12:52:44.029Z,21.12
2022-10-22T12:55:33.339Z,21.43
2022-10-22T12:58:35.339Z,21.50
2022-10-22T13:01:17.719Z,21.70
2022-10-22T13:04:04.369Z,21.64
2022-10-22T13:07:06.336Z,21.69
2022-10-22T13:10:10.342Z,21.48
2022-10-22T13:12:44.490Z,21.63
2022-10-22T13:15:29.882Z,22.02
2022-10-22T13:18:03.206Z,21.68
2022-10-22T13:20:30.110Z,21.51
2022-10-22T13:23:03.926Z,21.49
2022-10-22T13:25:30.794Z,21.90
2022-10-22T13:27:57.626Z,22.41
2022-10-22T13:30:32.089Z,22.15
2022-10-22T13:33:03.448Z,22.14
2022-10-22T13:35:32.807Z,22.21
2022-10-22T13:38:00.307Z,21.85
2022-10-22T13:40:27.436Z,21.93
2022-10-22T13:42:55.609Z,22.21
2022-10-22T13:45:42.386Z,22.47
2022-10-22T13:48:44.364Z,22.26
2022-10-22T13:51:34.893Z,22.47
2022-10-22T13:54:48.350Z,22.58
2022-10-22T13:57:28.842Z,22.33
2022-10-22T14:00:16.362Z,22.10
2022-10-22T14:02:58.215Z,22.05
2022-10-22T14:05:45.386Z,22.23
2022-10-22T14:08:26.254Z,22.13
2022-10-22T14:10:53.573Z,22.08
2022-10-22T14:13:21.203Z,22.26
2022-10-22T14:15:50.100Z,22.28
2022-10-22T14:18:24.316Z,22.33
2022-10-22T14:20:56.203Z,22.06
2022-10-22T14:23:24.886Z,22.34
2022-10-22T14:25:51.817Z,22.29
2022-10-22T14:28:18.700Z,22.27
2022-10-22T14:30:46.337Z,21.95
2022-10-22T14:33:18.432Z,21.84
2022-10-22T14:35:45.494Z,21.74
2022-10-22T14:38:12.582Z,21.79
2022-10-22T14:40:40.199Z,22.01
2022-10-22T14:43:30.407Z,21.96
2022-10-22T14:46:31.413Z,21.83
2022-10-22T14:49:11.905Z,21.79
2022-10-22T14:51:38.731Z,21.76
2022-10-22T14:54:25.400Z,21.74
2022-10-22T14:57:26.395Z,21.73
2022-10-22T15:00:08.141Z,21.64
2022-10-22T15:02:57.518Z,21.79
2022-10-22T15:05:44.708Z,21.53
2022-10-22T15:08:12.675Z,21.72
2022-10-22T15:10:40.249Z,21.66
2022-10-22T15:13:07.142Z,21.70
2022-10-22T15:15:39.290Z,21.81
2022-10-22T15:18:06.822Z,21.71
2022-10-22T15:20:33.721Z,21.55
2022-10-22T15:23:00.599Z,21.80
2022-10-22T15:25:27.640Z,21.58
2022-10-22T15:27:58.476Z,21.53
2022-10-22T15:30:28.746Z,21.35
2022-10-22T15:32:55.534Z,21.48
2022-10-22T15:35:22.329Z,21.51
2022-10-22T15:38:09.469Z,21.50
2022-10-22T15:41:19.526Z,21.34
2022-10-22T15:43:59.956Z,21.14
2022-10-22T15:46:33.211Z,21.00
2022-10-22T15:49:02.314Z,20.88
2022-10-22T15:51:29.162Z,20.76
2022-10-22T15:54:10.342Z,20.64
2022-10-22T15:57:15.487Z,20.49
2022-10-22T15:59:57.770Z,20.36
2022-10-22T16:02:44.528Z,20.31
2022-10-22T16:05:26.781Z,20.26
2022-10-22T16:07:55.795Z,20.21
2022-10-22T16:10:22.913Z,20.19
2022-10-22T16:12:51.690Z,20.20
2022-10-22T16:15:18.556Z,20.18
2022-10-22T16:18:05.475Z,20.16
2022-10-22T16:20:46.060Z,20.13
2022-10-22T16:23:13.925Z,20.11
2022-10-22T16:26:01.487Z,20.11
2022-10-22T16:28:42.689Z,20.12
2022-10-22T16:31:30.565Z,20.10
2022-10-22T16:34:11.749Z,20.07
2022-10-22T16:36:38.951Z,20.02
2022-10-22T16:39:26.504Z,19.95
2022-10-22T16:42:06.965Z,19.73
2022-10-22T16:44:33.954Z,19.73
2022-10-22T16:47:01.072Z,19.83
2022-10-22T16:49:28.016Z,19.95
2022-10-22T16:51:54.828Z,19.87
2022-10-22T16:54:41.474Z,19.87
2022-10-22T16:57:21.916Z,19.81
2022-10-22T16:59:48.911Z,19.89
2022-10-22T17:02:35.478Z,19.90
2022-10-22T17:05:29.906Z,19.70
2022-10-22T17:08:30.507Z,19.62
2022-10-22T17:10:57.436Z,19.63
2022-10-22T17:13:24.179Z,19.82
2022-10-22T17:16:15.480Z,19.74
2022-10-22T17:18:58.019Z,19.66
2022-10-22T17:21:25.254Z,19.62
2022-10-22T17:24:12.547Z,19.53
2022-10-22T17:27:13.612Z,19.42
2022-10-22T17:30:14.478Z,19.47
2022-10-22T17:33:15.507Z,19.50
2022-10-22T17:35:56.308Z,19.35
2022-10-22T17:38:23.291Z,19.37
2022-10-22T17:40:50.109Z,19.30
2022-10-22T17:43:16.959Z,19.51
2022-10-22T17:45:43.832Z,19.41
2022-10-22T17:48:10.605Z,19.34
2022-10-22T17:50:41.729Z,19.31
2022-10-22T17:53:09.295Z,19.44
2022-10-22T17:55:56.644Z,19.39
2022-10-22T17:58:57.577Z,19.36
2022-10-22T18:02:00.282Z,19.49
2022-10-22T18:05:03.543Z,19.74
2022-10-22T18:08:04.333Z,19.75
2022-10-22T18:10:48.349Z,19.64
2022-10-22T18:13:15.299Z,19.75
2022-10-22T18:15:42.241Z,19.76
2022-10-22T18:18:29.574Z,19.60
2022-10-22T18:21:10.248Z,19.53
2022-10-22T18:23:57.579Z,19.52
2022-10-22T18:26:58.554Z,19.51
2022-10-22T18:29:39.098Z,19.49
2022-10-22T18:32:12.077Z,19.57
2022-10-22T18:34:40.139Z,19.71
2022-10-22T18:37:07.036Z,19.74
2022-10-22T18:39:34.617Z,19.81
2022-10-22T18:42:06.318Z,19.67
2022-10-22T18:44:33.953Z,19.61
2022-10-22T18:47:00.692Z,19.76
2022-10-22T18:49:27.580Z,19.65
2022-10-22T18:51:54.425Z,19.54
2022-10-22T18:54:41.519Z,19.49
2022-10-22T18:57:21.926Z,19.64
2022-10-22T18:59:48.774Z,19.44
2022-10-22T19:02:36.577Z,19.62
2022-10-22T19:05:37.580Z,19.45
2022-10-22T19:08:38.592Z,19.26
2022-10-22T19:11:22.589Z,19.26
2022-10-22T19:14:15.128Z,19.11
2022-10-22T19:16:42.057Z,19.04
2022-10-22T19:19:09.054Z,19.10
2022-10-22T19:21:36.759Z,18.94
2022-10-22T19:24:23.591Z,18.85
2022-10-22T19:27:04.424Z,18.76
2022-10-22T19:29:31.386Z,18.71
2022-10-22T19:32:18.591Z,18.69
2022-10-22T19:34:59.053Z,18.51
2022-10-22T19:37:25.865Z,18.50
2022-10-22T19:39:52.800Z,18.49
2022-10-22T19:42:20.980Z,18.44
2022-10-22T19:44:47.831Z,18.58
2022-10-22T19:47:16.102Z,18.62
2022-10-22T19:50:03.651Z,18.47
2022-10-22T19:53:04.647Z,18.54
2022-10-22T19:56:05.597Z,18.53
2022-10-22T19:58:46.316Z,18.47
2022-10-22T20:01:14.371Z,18.48
2022-10-22T20:04:01.715Z,18.37
2022-10-22T20:07:02.629Z,18.35
2022-10-22T20:09:43.055Z,18.21
2022-10-22T20:12:09.885Z,18.15
2022-10-22T20:14:37.543Z,18.30
2022-10-22T20:17:04.393Z,18.38
2022-10-22T20:19:31.467Z,18.38
2022-10-22T20:24:26.112Z,18.16
2022-10-22T20:26:52.919Z,18.30
2022-10-22T20:29:19.788Z,18.28
2022-10-22T20:31:47.124Z,17.98
2022-10-22T20:34:13.991Z,17.86
2022-10-22T20:36:41.073Z,17.86
2022-10-22T20:39:10.282Z,17.84
2022-10-22T20:41:39.247Z,17.93
2022-10-22T20:44:07.015Z,18.01
2022-10-22T20:46:34.502Z,18.07
2022-10-22T20:49:04.393Z,18.15
2022-10-22T20:51:31.297Z,18.08
2022-10-22T20:54:19.619Z,18.02
2022-10-22T20:57:00.183Z,18.05
2022-10-22T20:59:47.640Z,18.09
2022-10-22T21:02:49.612Z,17.99
2022-10-22T21:05:30.090Z,17.80
2022-10-22T21:07:58.538Z,17.88
2022-10-22T21:10:38.767Z,17.85
2022-10-22T21:13:39.674Z,17.74
2022-10-22T21:16:20.364Z,17.70
2022-10-22T21:18:47.530Z,17.59
2022-10-22T21:21:17.133Z,17.58
2022-10-22T21:23:43.930Z,17.59
2022-10-22T21:26:10.822Z,17.49
2022-10-22T21:28:57.631Z,17.42
2022-10-22T21:31:40.449Z,17.42
2022-10-22T21:34:07.803Z,17.41
2022-10-22T21:36:34.815Z,17.41
2022-10-22T21:39:02.842Z,17.39
2022-10-22T21:41:29.755Z,17.52
2022-10-22T21:43:56.618Z,17.59
2022-10-22T21:46:43.692Z,17.47
2022-10-22T21:49:44.677Z,17.42
2022-10-22T21:52:25.277Z,17.37
2022-10-22T21:55:13.666Z,17.20
2022-10-22T21:58:14.666Z,17.13
2022-10-22T22:00:56.278Z,17.03
2022-10-22T22:03:43.710Z,17.12
2022-10-22T22:06:26.273Z,17.07
2022-10-22T22:08:54.899Z,17.08
2022-10-22T22:11:23.306Z,17.08
2022-10-22T22:13:50.895Z,17.07
2022-10-22T22:16:21.308Z,17.06
2022-10-22T22:18:50.832Z,17.20
2022-10-22T22:21:19.348Z,17.36
2022-10-22T22:23:47.592Z,17.35
2022-10-22T22:26:15.654Z,17.31
2022-10-22T22:28:42.544Z,17.31
2022-10-22T22:31:29.372Z,17.35
2022-10-22T22:34:00.235Z,17.35
2022-10-22T22:36:27.259Z,17.30
2022-10-22T22:38:55.415Z,17.24
2022-10-22T22:41:22.477Z,17.51
2022-10-22T22:43:51.110Z,17.66
2022-10-22T22:46:18.097Z,17.70
2022-10-22T22:49:05.689Z,17.52
2022-10-22T22:52:06.743Z,17.50
2022-10-22T22:55:07.670Z,17.57
2022-10-22T22:57:48.186Z,17.53
2022-10-22T23:00:15.280Z,17.62
2022-10-22T23:02:42.590Z,17.71
2022-10-22T23:05:09.713Z,17.79
2022-10-22T23:07:36.522Z,17.76
2022-10-22T23:10:03.824Z,17.73
2022-10-22T23:12:30.567Z,17.72
2022-10-22T23:15:02.057Z,17.67
2022-10-22T23:17:29.025Z,17.65
2022-10-22T23:19:55.941Z,17.69
2022-10-22T23:22:22.782Z,17.75
2022-10-22T23:24:49.642Z,17.77
2022-10-22T23:27:16.442Z,17.64
2022-10-22T23:29:43.211Z,17.63
2022-10-22T23:32:14.278Z,17.62
2022-10-22T23:34:41.168Z,17.59
2022-10-22T23:37:09.657Z,17.53
2022-10-22T23:39:36.447Z,17.46
2022-10-22T23:42:23.741Z,17.42
2022-10-22T23:45:04.331Z,17.35
2022-10-22T23:47:51.731Z,17.24
2022-10-22T23:53:53.711Z,17.03
2022-10-22T23:56:54.774Z,17.07
2022-10-22T23:59:35.273Z,17.02
